createdAt,value
2022-09-26T00:00:40.680Z,936.06
2022-09-26T00:01:40.783Z,936.10
2022-09-26T00:02:40.795Z,936.07
2022-09-26T00:03:40.720Z,936.10
2022-09-26T00:04:40.732Z,936.13
2022-09-26T00:05:40.746Z,936.08
2022-09-26T00:06:40.759Z,936.05
2022-09-26T00:07:40.772Z,936.07
2022-09-26T00:08:40.785Z,936.09
2022-09-26T00:09:40.843Z,936.07
2022-09-26T00:10:40.810Z,936.06
2022-09-26T00:11:40.827Z,936.01
2022-09-26T00:12:40.859Z,936.05
2022-09-26T00:13:40.851Z,936.02
2022-09-26T00:14:40.863Z,936.01
2022-09-26T00:15:40.875Z,936.01
2022-09-26T00:16:40.938Z,936.05
2022-09-26T00:17:40.905Z,935.97
2022-09-26T00:18:40.915Z,936.01
2022-09-26T00:19:40.927Z,935.97
2022-09-26T00:20:40.943Z,935.91
2022-09-26T00:21:40.956Z,935.90
2022-09-26T00:22:40.967Z,935.82
2022-09-26T00:23:40.981Z,935.87
2022-09-26T00:24:40.994Z,935.85
2022-09-26T00:25:41.009Z,935.87
2022-09-26T00:26:41.020Z,935.85
2022-09-26T00:27:41.032Z,935.84
2022-09-26T00:28:41.063Z,935.82
2022-09-26T00:29:41.061Z,935.79
2022-09-26T00:30:41.113Z,935.77
2022-09-26T00:31:41.085Z,935.74
2022-09-26T00:32:41.098Z,935.76
2022-09-26T00:33:41.112Z,935.77
2022-09-26T00:34:41.126Z,935.79
2022-09-26T00:35:41.139Z,935.77
2022-09-26T00:36:41.153Z,935.78
2022-09-26T00:37:41.167Z,935.84
2022-09-26T00:38:41.177Z,935.78
2022-09-26T00:39:41.189Z,935.86
2022-09-26T00:40:41.250Z,935.83
2022-09-26T00:41:41.217Z,935.89
2022-09-26T00:42:41.228Z,935.93
2022-09-26T00:43:41.241Z,935.96
2022-09-26T00:44:41.279Z,935.96
2022-09-26T00:45:41.287Z,935.97
2022-09-26T00:46:41.281Z,935.93
2022-09-26T00:47:41.296Z,935.94
2022-09-26T00:48:41.309Z,935.92
2022-09-26T00:49:41.321Z,935.93
2022-09-26T00:50:41.334Z,935.86
2022-09-26T00:51:41.345Z,935.89
2022-09-26T00:52:41.360Z,935.86
2022-09-26T00:53:41.373Z,935.84
2022-09-26T00:54:41.384Z,935.86
2022-09-26T00:55:41.399Z,935.88
2022-09-26T00:56:41.413Z,935.91
2022-09-26T00:57:41.427Z,935.93
2022-09-26T00:58:41.435Z,935.95
2022-09-26T00:59:41.449Z,936.00
2022-09-26T01:00:42.336Z,935.98
2022-09-26T01:01:41.643Z,935.97
2022-09-26T01:02:41.574Z,935.96
2022-09-26T01:03:41.504Z,935.94
2022-09-26T01:04:41.518Z,935.91
2022-09-26T01:05:41.584Z,935.93
2022-09-26T01:06:41.541Z,935.90
2022-09-26T01:07:41.555Z,935.87
2022-09-26T01:08:41.567Z,935.87
2022-09-26T01:09:41.582Z,935.87
2022-09-26T01:10:41.592Z,935.87
2022-09-26T01:11:41.606Z,935.85
2022-09-26T01:12:41.620Z,935.91
2022-09-26T01:13:41.634Z,935.89
2022-09-26T01:14:41.662Z,935.93
2022-09-26T01:15:41.657Z,935.94
2022-09-26T01:16:41.755Z,935.93
2022-09-26T01:17:41.690Z,935.94
2022-09-26T01:18:41.697Z,935.91
2022-09-26T01:19:41.710Z,935.91
2022-09-26T01:20:41.724Z,935.92
2022-09-26T01:21:41.737Z,935.92
2022-09-26T01:22:41.756Z,935.96
2022-09-26T01:23:41.762Z,935.95
2022-09-26T01:24:41.781Z,935.97
2022-09-26T01:25:41.789Z,935.99
2022-09-26T01:26:41.804Z,935.97
2022-09-26T01:27:41.815Z,936.00
2022-09-26T01:28:41.828Z,936.07
2022-09-26T01:29:41.845Z,936.02
2022-09-26T01:30:41.950Z,936.02
2022-09-26T01:31:41.868Z,935.99
2022-09-26T01:32:41.899Z,936.04
2022-09-26T01:33:41.943Z,936.01
2022-09-26T01:34:41.909Z,936.01
2022-09-26T01:35:41.918Z,936.00
2022-09-26T01:36:41.933Z,936.04
2022-09-26T01:37:41.945Z,936.06
2022-09-26T01:38:41.959Z,936.03
2022-09-26T01:39:41.972Z,936.08
2022-09-26T01:40:42.042Z,936.10
2022-09-26T01:41:42.009Z,936.11
2022-09-26T01:42:42.009Z,936.09
2022-09-26T01:43:42.023Z,936.10
2022-09-26T01:44:42.036Z,936.05
2022-09-26T01:45:42.115Z,936.05
2022-09-26T01:46:42.061Z,936.03
2022-09-26T01:47:42.075Z,936.04
2022-09-26T01:48:42.107Z,936.08
2022-09-26T01:49:42.102Z,936.10
2022-09-26T01:50:42.113Z,936.11
2022-09-26T01:51:42.127Z,936.12
2022-09-26T01:52:42.141Z,936.15
2022-09-26T01:53:42.152Z,936.18
2022-09-26T01:54:42.166Z,936.19
2022-09-26T01:55:42.178Z,936.19
2022-09-26T01:56:42.191Z,936.23
2022-09-26T01:57:42.206Z,936.21
2022-09-26T01:58:42.217Z,936.17
2022-09-26T01:59:42.230Z,936.20
2022-09-26T02:00:42.371Z,936.20
2022-09-26T02:01:42.336Z,936.20
2022-09-26T02:02:42.367Z,936.21
2022-09-26T02:03:42.281Z,936.22
2022-09-26T02:04:42.316Z,936.24
2022-09-26T02:05:42.308Z,936.28
2022-09-26T02:06:42.320Z,936.24
2022-09-26T02:07:42.335Z,936.22
2022-09-26T02:08:42.355Z,936.21
2022-09-26T02:09:42.362Z,936.23
2022-09-26T02:10:42.374Z,936.18
2022-09-26T02:11:42.384Z,936.22
2022-09-26T02:12:42.397Z,936.21
2022-09-26T02:13:42.412Z,936.17
2022-09-26T02:14:42.426Z,936.17
2022-09-26T02:15:42.438Z,936.21
2022-09-26T02:16:42.510Z,936.22
2022-09-26T02:17:42.463Z,936.23
2022-09-26T02:18:42.476Z,936.19
2022-09-26T02:19:42.489Z,936.20
2022-09-26T02:20:42.605Z,936.16
2022-09-26T02:21:42.516Z,936.15
2022-09-26T02:22:42.527Z,936.15
2022-09-26T02:23:42.549Z,936.11
2022-09-26T02:24:42.555Z,936.08
2022-09-26T02:25:42.568Z,936.10
2022-09-26T02:26:42.581Z,936.05
2022-09-26T02:27:42.593Z,936.06
2022-09-26T02:28:42.605Z,936.04
2022-09-26T02:29:42.619Z,936.01
2022-09-26T02:30:42.633Z,936.03
2022-09-26T02:31:42.767Z,936.01
2022-09-26T02:32:42.666Z,935.98
2022-09-26T02:33:42.679Z,936.00
2022-09-26T02:34:42.688Z,935.94
2022-09-26T02:35:42.703Z,935.90
2022-09-26T02:36:42.811Z,935.88
2022-09-26T02:37:42.730Z,935.86
2022-09-26T02:38:42.735Z,935.83
2022-09-26T02:39:42.753Z,935.84
2022-09-26T02:40:42.861Z,935.83
2022-09-26T02:41:42.775Z,935.82
2022-09-26T02:42:42.786Z,935.84
2022-09-26T02:43:42.798Z,935.81
2022-09-26T02:44:42.813Z,935.83
2022-09-26T02:45:42.874Z,935.80
2022-09-26T02:46:43.188Z,935.77
2022-09-26T02:47:42.852Z,935.80
2022-09-26T02:48:42.865Z,935.79
2022-09-26T02:49:42.878Z,935.81
2022-09-26T02:50:42.889Z,935.81
2022-09-26T02:51:42.911Z,935.83
2022-09-26T02:52:42.933Z,935.83
2022-09-26T02:53:42.930Z,935.77
2022-09-26T02:54:42.940Z,935.81
2022-09-26T02:55:42.955Z,935.78
2022-09-26T02:56:42.968Z,935.81
2022-09-26T02:57:42.980Z,935.76
2022-09-26T02:58:42.994Z,935.74
2022-09-26T02:59:43.006Z,935.76
2022-09-26T03:00:43.070Z,935.76
2022-09-26T03:01:43.128Z,935.68
2022-09-26T03:02:43.045Z,935.65
2022-09-26T03:03:43.097Z,935.65
2022-09-26T03:04:43.159Z,935.63
2022-09-26T03:05:43.084Z,935.61
2022-09-26T03:06:43.097Z,935.60
2022-09-26T03:07:43.109Z,935.60
2022-09-26T03:08:43.167Z,935.53
2022-09-26T03:09:43.138Z,935.50
2022-09-26T03:10:43.148Z,935.52
2022-09-26T03:11:43.162Z,935.50
2022-09-26T03:12:43.177Z,935.50
2022-09-26T03:13:43.188Z,935.53
2022-09-26T03:14:43.200Z,935.52
2022-09-26T03:15:43.212Z,935.50
2022-09-26T03:16:43.322Z,935.53
2022-09-26T03:17:43.239Z,935.50
2022-09-26T03:18:43.251Z,935.47
2022-09-26T03:19:43.265Z,935.43
2022-09-26T03:20:43.278Z,935.38
2022-09-26T03:21:43.290Z,935.36
2022-09-26T03:22:43.305Z,935.33
2022-09-26T03:23:43.317Z,935.30
2022-09-26T03:24:43.347Z,935.33
2022-09-26T03:25:43.342Z,935.33
2022-09-26T03:26:43.354Z,935.32
2022-09-26T03:27:43.365Z,935.29
2022-09-26T03:28:43.381Z,935.33
2022-09-26T03:29:43.393Z,935.29
2022-09-26T03:30:43.404Z,935.23
2022-09-26T03:31:43.499Z,935.22
2022-09-26T03:32:43.431Z,935.15
2022-09-26T03:33:43.450Z,935.15
2022-09-26T03:34:43.457Z,935.08
2022-09-26T03:35:43.469Z,935.08
2022-09-26T03:36:43.484Z,935.03
2022-09-26T03:37:43.497Z,934.99
2022-09-26T03:38:43.508Z,934.98
2022-09-26T03:39:43.520Z,935.00
2022-09-26T03:40:43.628Z,934.96
2022-09-26T03:41:43.547Z,934.98
2022-09-26T03:42:43.560Z,934.98
2022-09-26T03:43:43.577Z,935.00
2022-09-26T03:44:43.585Z,935.00
2022-09-26T03:45:43.656Z,935.01
2022-09-26T03:46:43.649Z,934.99
2022-09-26T03:47:43.622Z,935.02
2022-09-26T03:48:43.638Z,935.05
2022-09-26T03:49:43.652Z,935.07
2022-09-26T03:50:43.664Z,935.04
2022-09-26T03:51:43.675Z,935.03
2022-09-26T03:52:43.689Z,935.05
2022-09-26T03:53:43.707Z,935.01
2022-09-26T03:54:43.715Z,934.96
2022-09-26T03:55:43.730Z,934.98
2022-09-26T03:56:43.760Z,934.97
2022-09-26T03:57:43.753Z,934.96
2022-09-26T03:58:43.765Z,934.98
2022-09-26T03:59:43.780Z,934.93
2022-09-26T04:00:43.849Z,934.94
2022-09-26T04:01:43.855Z,934.90
2022-09-26T04:02:43.867Z,934.89
2022-09-26T04:03:49.283Z,934.89
2022-09-26T04:04:43.847Z,934.91
2022-09-26T04:05:43.858Z,934.91
2022-09-26T04:06:43.868Z,934.89
2022-09-26T04:07:43.881Z,934.89
2022-09-26T04:08:43.897Z,934.91
2022-09-26T04:09:43.906Z,934.87
2022-09-26T04:10:43.920Z,934.88
2022-09-26T04:11:43.933Z,934.88
2022-09-26T04:12:43.969Z,934.88
2022-09-26T04:13:51.784Z,934.90
2022-09-26T04:14:43.971Z,934.95
2022-09-26T04:15:43.987Z,934.97
2022-09-26T04:16:44.048Z,934.99
2022-09-26T04:17:44.013Z,935.03
2022-09-26T04:18:44.022Z,935.03
2022-09-26T04:19:44.033Z,935.10
2022-09-26T04:20:44.052Z,935.09
2022-09-26T04:21:44.060Z,935.12
2022-09-26T04:22:44.072Z,935.09
2022-09-26T04:23:44.093Z,935.16
2022-09-26T04:24:44.100Z,935.14
2022-09-26T04:25:44.113Z,935.15
2022-09-26T04:26:44.124Z,935.10
2022-09-26T04:27:44.140Z,935.10
2022-09-26T04:28:44.170Z,935.12
2022-09-26T04:29:44.167Z,935.10
2022-09-26T04:30:44.175Z,935.11
2022-09-26T04:31:44.231Z,935.18
2022-09-26T04:32:44.205Z,935.17
2022-09-26T04:33:44.216Z,935.17
2022-09-26T04:34:44.229Z,935.20
2022-09-26T04:35:44.241Z,935.17
2022-09-26T04:36:44.259Z,935.16
2022-09-26T04:37:44.266Z,935.11
2022-09-26T04:38:44.282Z,935.10
2022-09-26T04:39:44.291Z,935.04
2022-09-26T04:40:44.344Z,935.00
2022-09-26T04:41:44.320Z,935.05
2022-09-26T04:42:44.332Z,935.00
2022-09-26T04:43:44.350Z,935.00
2022-09-26T04:44:44.376Z,935.04
2022-09-26T04:45:44.426Z,935.03
2022-09-26T04:46:44.389Z,935.03
2022-09-26T04:47:44.393Z,935.05
2022-09-26T04:48:44.406Z,935.08
2022-09-26T04:49:44.420Z,935.10
2022-09-26T04:50:44.433Z,935.09
2022-09-26T04:51:44.446Z,935.09
2022-09-26T04:52:44.459Z,935.08
2022-09-26T04:53:44.472Z,935.08
2022-09-26T04:54:44.484Z,935.11
2022-09-26T04:55:44.498Z,935.11
2022-09-26T04:56:44.509Z,935.10
2022-09-26T04:57:44.522Z,935.07
2022-09-26T04:58:44.538Z,935.06
2022-09-26T04:59:44.548Z,935.09
2022-09-26T05:00:44.627Z,935.06
2022-09-26T05:01:44.622Z,935.02
2022-09-26T05:02:44.588Z,935.03
2022-09-26T05:03:44.599Z,934.93
2022-09-26T05:04:44.613Z,934.87
2022-09-26T05:05:44.653Z,934.83
2022-09-26T05:06:44.645Z,934.77
2022-09-26T05:07:44.653Z,934.79
2022-09-26T05:08:44.667Z,934.80
2022-09-26T05:09:44.676Z,934.85
2022-09-26T05:10:44.690Z,934.90
2022-09-26T05:11:44.703Z,934.92
2022-09-26T05:12:44.714Z,934.96
2022-09-26T05:13:44.730Z,934.88
2022-09-26T05:14:44.747Z,934.86
2022-09-26T05:15:44.754Z,934.86
2022-09-26T05:16:44.866Z,934.82
2022-09-26T05:17:44.780Z,934.88
2022-09-26T05:18:44.796Z,934.87
2022-09-26T05:19:44.805Z,934.92
2022-09-26T05:20:44.819Z,934.89
2022-09-26T05:21:44.830Z,934.95
2022-09-26T05:22:44.843Z,934.92
2022-09-26T05:23:45.529Z,934.93
2022-09-26T05:24:44.868Z,934.93
2022-09-26T05:25:44.882Z,934.96
2022-09-26T05:26:44.894Z,934.94
2022-09-26T05:27:44.906Z,934.93
2022-09-26T05:28:44.920Z,934.94
2022-09-26T05:29:44.934Z,934.91
2022-09-26T05:30:44.946Z,934.90
2022-09-26T05:31:44.975Z,934.89
2022-09-26T05:32:44.989Z,934.85
2022-09-26T05:33:44.985Z,934.85
2022-09-26T05:34:44.997Z,934.85
2022-09-26T05:35:45.008Z,934.88
2022-09-26T05:36:45.023Z,934.89
2022-09-26T05:37:45.035Z,934.93
2022-09-26T05:38:45.049Z,934.97
2022-09-26T05:39:45.059Z,934.92
2022-09-26T05:40:45.123Z,934.95
2022-09-26T05:41:45.088Z,935.01
2022-09-26T05:42:45.099Z,935.02
2022-09-26T05:43:45.113Z,935.04
2022-09-26T05:44:45.126Z,935.01
2022-09-26T05:45:45.138Z,935.02
2022-09-26T05:46:45.202Z,935.00
2022-09-26T05:47:45.164Z,935.00
2022-09-26T05:48:45.194Z,934.94
2022-09-26T05:49:45.187Z,934.94
2022-09-26T05:50:45.199Z,934.92
2022-09-26T05:51:45.215Z,934.93
2022-09-26T05:52:45.225Z,934.90
2022-09-26T05:53:45.239Z,934.91
2022-09-26T05:54:45.256Z,934.87
2022-09-26T05:55:45.284Z,934.83
2022-09-26T05:56:45.279Z,934.87
2022-09-26T05:57:45.292Z,934.88
2022-09-26T05:58:45.302Z,934.83
2022-09-26T05:59:45.316Z,934.82
2022-09-26T06:00:45.374Z,934.80
2022-09-26T06:01:45.397Z,934.79
2022-09-26T06:02:45.414Z,934.76
2022-09-26T06:03:45.370Z,934.77
2022-09-26T06:04:45.397Z,934.77
2022-09-26T06:05:45.391Z,934.80
2022-09-26T06:06:45.406Z,934.81
2022-09-26T06:07:45.418Z,934.83
2022-09-26T06:08:45.431Z,934.85
2022-09-26T06:09:45.444Z,934.91
2022-09-26T06:10:45.456Z,934.93
2022-09-26T06:11:45.471Z,934.94
2022-09-26T06:12:50.157Z,934.99
2022-09-26T06:13:45.505Z,934.99
2022-09-26T06:14:45.513Z,934.99
2022-09-26T06:15:45.522Z,934.99
2022-09-26T06:16:45.659Z,934.96
2022-09-26T06:17:45.548Z,934.94
2022-09-26T06:18:45.557Z,934.89
2022-09-26T06:19:45.570Z,934.92
2022-09-26T06:20:45.608Z,934.89
2022-09-26T06:21:45.598Z,934.93
2022-09-26T06:22:45.611Z,934.92
2022-09-26T06:23:45.624Z,934.96
2022-09-26T06:24:45.635Z,934.93
2022-09-26T06:25:45.648Z,934.92
2022-09-26T06:26:45.659Z,934.93
2022-09-26T06:27:45.673Z,934.88
2022-09-26T06:28:45.689Z,934.90
2022-09-26T06:29:45.699Z,934.89
2022-09-26T06:30:45.710Z,934.88
2022-09-26T06:31:45.797Z,934.86
2022-09-26T06:32:45.738Z,934.84
2022-09-26T06:33:45.748Z,934.83
2022-09-26T06:34:45.764Z,934.86
2022-09-26T06:35:45.774Z,934.87
2022-09-26T06:36:45.811Z,934.85
2022-09-26T06:37:45.803Z,934.91
2022-09-26T06:38:45.813Z,934.95
2022-09-26T06:39:45.827Z,934.90
2022-09-26T06:40:45.907Z,934.93
2022-09-26T06:41:45.860Z,934.91
2022-09-26T06:42:45.864Z,934.92
2022-09-26T06:43:45.886Z,934.92
2022-09-26T06:44:45.898Z,934.89
2022-09-26T06:45:45.910Z,934.90
2022-09-26T06:46:45.968Z,934.88
2022-09-26T06:47:45.929Z,934.87
2022-09-26T06:48:45.943Z,934.91
2022-09-26T06:49:45.955Z,934.92
2022-09-26T06:50:45.966Z,934.92
2022-09-26T06:51:45.979Z,934.89
2022-09-26T06:52:46.009Z,934.90
2022-09-26T06:53:46.051Z,934.90
2022-09-26T06:54:46.018Z,934.90
2022-09-26T06:55:46.030Z,934.92
2022-09-26T06:56:46.041Z,934.90
2022-09-26T06:57:46.055Z,935.03
2022-09-26T06:58:46.068Z,934.99
2022-09-26T06:59:46.079Z,934.99
2022-09-26T07:00:46.202Z,934.97
2022-09-26T07:01:46.269Z,934.94
2022-09-26T07:02:46.119Z,934.95
2022-09-26T07:03:46.298Z,935.03
2022-09-26T07:04:46.145Z,935.06
2022-09-26T07:05:46.159Z,935.06
2022-09-26T07:06:46.167Z,935.07
2022-09-26T07:07:46.184Z,935.12
2022-09-26T07:09:04.656Z,935.11
2022-09-26T07:09:46.207Z,935.15
2022-09-26T07:10:46.232Z,935.13
2022-09-26T07:12:13.001Z,935.10
2022-09-26T07:12:46.247Z,935.16
2022-09-26T07:13:46.257Z,935.12
2022-09-26T07:14:50.070Z,935.15
2022-09-26T07:15:46.352Z,935.13
2022-09-26T07:16:46.295Z,935.18
2022-09-26T07:17:46.311Z,935.19
2022-09-26T07:18:46.323Z,935.19
2022-09-26T07:19:46.334Z,935.16
2022-09-26T07:20:46.348Z,935.20
2022-09-26T07:21:46.360Z,935.21
2022-09-26T07:22:46.374Z,935.27
2022-09-26T07:23:46.386Z,935.30
2022-09-26T07:24:46.415Z,935.33
2022-09-26T07:25:46.411Z,935.36
2022-09-26T07:26:46.422Z,935.44
2022-09-26T07:27:46.436Z,935.42
2022-09-26T07:28:50.792Z,935.36
2022-09-26T07:29:46.463Z,935.17
2022-09-26T07:30:46.472Z,935.13
2022-09-26T07:31:46.619Z,935.20
2022-09-26T07:32:46.500Z,935.27
2022-09-26T07:33:46.514Z,935.37
2022-09-26T07:34:46.526Z,935.36
2022-09-26T07:35:46.538Z,935.42
2022-09-26T07:36:46.551Z,935.42
2022-09-26T07:37:46.566Z,935.48
2022-09-26T07:38:46.576Z,935.52
2022-09-26T07:39:50.048Z,935.53
2022-09-26T07:40:46.724Z,935.55
2022-09-26T07:41:46.613Z,935.55
2022-09-26T07:43:04.007Z,935.58
2022-09-26T07:44:41.232Z,935.59
2022-09-26T07:45:20.958Z,935.59
2022-09-26T07:45:46.663Z,935.63
2022-09-26T07:46:46.790Z,935.69
2022-09-26T07:47:46.692Z,935.76
2022-09-26T07:48:46.701Z,935.77
2022-09-26T07:49:46.717Z,935.78
2022-09-26T07:50:46.726Z,935.77
2022-09-26T07:51:46.740Z,935.79
2022-09-26T07:52:46.753Z,935.79
2022-09-26T07:53:46.769Z,935.82
2022-09-26T07:54:46.784Z,935.86
2022-09-26T07:55:46.802Z,935.97
2022-09-26T07:56:46.824Z,936.01
2022-09-26T07:57:46.816Z,936.05
2022-09-26T07:58:46.827Z,936.08
2022-09-26T07:59:46.840Z,936.15
2022-09-26T08:00:46.855Z,936.16
2022-09-26T08:01:46.941Z,936.13
2022-09-26T08:02:47.077Z,936.15
2022-09-26T08:03:46.893Z,936.16
2022-09-26T08:04:46.909Z,936.17
2022-09-26T08:05:46.918Z,936.20
2022-09-26T08:06:46.935Z,936.22
2022-09-26T08:07:46.941Z,936.28
2022-09-26T08:08:46.956Z,936.30
2022-09-26T08:09:46.970Z,936.31
2022-09-26T08:10:46.980Z,936.29
2022-09-26T08:11:46.995Z,936.29
2022-09-26T08:12:47.025Z,936.28
2022-09-26T08:13:47.021Z,936.36
2022-09-26T08:14:47.033Z,936.42
2022-09-26T08:15:47.086Z,936.48
2022-09-26T08:16:47.067Z,936.51
2022-09-26T08:17:47.072Z,936.55
2022-09-26T08:18:47.085Z,936.59
2022-09-26T08:19:47.097Z,936.66
2022-09-26T08:20:47.115Z,936.69
2022-09-26T08:21:47.121Z,936.66
2022-09-26T08:22:47.131Z,936.72
2022-09-26T08:23:47.144Z,936.72
2022-09-26T08:24:47.158Z,936.72
2022-09-26T08:25:47.170Z,936.67
2022-09-26T08:26:47.183Z,936.68
2022-09-26T08:27:47.197Z,936.68
2022-09-26T08:28:47.228Z,936.66
2022-09-26T08:29:47.223Z,936.68
2022-09-26T08:30:47.236Z,936.69
2022-09-26T08:31:47.283Z,936.75
2022-09-26T08:32:47.261Z,936.79
2022-09-26T08:33:47.275Z,936.80
2022-09-26T08:34:47.285Z,936.87
2022-09-26T08:35:47.296Z,936.88
2022-09-26T08:36:47.312Z,936.76
2022-09-26T08:37:47.324Z,936.77
2022-09-26T08:38:47.337Z,936.77
2022-09-26T08:39:47.347Z,936.73
2022-09-26T08:40:47.425Z,936.67
2022-09-26T08:41:47.373Z,936.56
2022-09-26T08:42:47.386Z,936.52
2022-09-26T08:43:47.401Z,936.49
2022-09-26T08:44:47.522Z,936.51
2022-09-26T08:45:48.033Z,936.50
2022-09-26T08:46:47.566Z,936.53
2022-09-26T08:47:47.451Z,936.55
2022-09-26T08:48:47.464Z,936.57
2022-09-26T08:49:47.475Z,936.62
2022-09-26T08:50:47.487Z,936.65
2022-09-26T08:51:47.571Z,936.75
2022-09-26T08:52:47.514Z,936.78
2022-09-26T08:53:47.526Z,936.82
2022-09-26T08:54:47.537Z,936.77
2022-09-26T08:55:47.555Z,936.78
2022-09-26T08:56:47.564Z,936.74
2022-09-26T08:57:47.576Z,936.70
2022-09-26T08:58:47.591Z,936.67
2022-09-26T08:59:47.600Z,936.72
2022-09-26T09:00:47.637Z,936.70
2022-09-26T09:01:47.765Z,936.77
2022-09-26T09:02:47.779Z,936.83
2022-09-26T09:03:47.653Z,936.82
2022-09-26T09:04:52.987Z,936.82
2022-09-26T09:05:47.677Z,936.80
2022-09-26T09:06:47.691Z,936.82
2022-09-26T09:07:47.707Z,936.87
2022-09-26T09:08:47.717Z,936.86
2022-09-26T09:09:47.731Z,936.86
2022-09-26T09:10:47.740Z,936.88
2022-09-26T09:11:50.783Z,936.89
2022-09-26T09:12:47.765Z,936.97
2022-09-26T09:13:47.779Z,936.96
2022-09-26T09:15:02.347Z,936.96
2022-09-26T09:15:47.861Z,936.91
2022-09-26T09:16:47.840Z,936.90
2022-09-26T09:17:47.846Z,936.91
2022-09-26T09:18:47.840Z,936.97
2022-09-26T09:19:47.855Z,936.97
2022-09-26T09:20:47.867Z,936.96
2022-09-26T09:21:47.881Z,937.02
2022-09-26T09:22:47.894Z,936.94
2022-09-26T09:23:47.905Z,936.92
2022-09-26T09:24:47.917Z,936.92
2022-09-26T09:25:48.035Z,936.89
2022-09-26T09:27:55.847Z,937.00
2022-09-26T09:28:47.968Z,937.04
2022-09-26T09:29:49.619Z,937.17
2022-09-26T09:30:47.993Z,937.23
2022-09-26T09:31:48.068Z,937.27
2022-09-26T09:32:48.128Z,937.29
2022-09-26T09:33:48.032Z,937.29
2022-09-26T09:34:51.523Z,937.31
2022-09-26T09:35:48.060Z,937.30
2022-09-26T09:36:48.070Z,937.29
2022-09-26T09:37:48.083Z,937.21
2022-09-26T09:38:48.096Z,937.19
2022-09-26T09:39:48.106Z,937.14
2022-09-26T09:40:48.253Z,937.14
2022-09-26T09:41:48.133Z,937.09
2022-09-26T09:42:48.153Z,937.03
2022-09-26T09:43:48.159Z,937.02
2022-09-26T09:44:48.175Z,936.98
2022-09-26T09:45:48.184Z,936.97
2022-09-26T09:46:48.278Z,936.96
2022-09-26T09:47:48.207Z,936.95
2022-09-26T09:48:48.245Z,936.99
2022-09-26T09:49:48.234Z,936.99
2022-09-26T09:50:48.246Z,937.01
2022-09-26T09:51:48.260Z,937.00
2022-09-26T09:52:48.272Z,937.05
2022-09-26T09:53:48.285Z,937.09
2022-09-26T09:54:48.303Z,937.08
2022-09-26T09:55:48.310Z,937.22
2022-09-26T09:56:48.322Z,937.25
2022-09-26T09:57:48.335Z,937.30
2022-09-26T09:58:48.349Z,937.32
2022-09-26T09:59:48.361Z,937.38
2022-09-26T10:00:51.213Z,937.38
2022-09-26T10:01:48.387Z,937.39
2022-09-26T10:02:48.458Z,937.35
2022-09-26T10:03:48.412Z,937.29
2022-09-26T10:04:48.674Z,937.30
2022-09-26T10:05:48.438Z,937.24
2022-09-26T10:06:48.450Z,937.22
2022-09-26T10:07:48.461Z,937.19
2022-09-26T10:08:48.491Z,937.15
2022-09-26T10:09:48.487Z,937.12
2022-09-26T10:10:48.498Z,937.11
2022-09-26T10:11:52.477Z,937.10
2022-09-26T10:12:48.525Z,937.16
2022-09-26T10:13:48.540Z,937.20
2022-09-26T10:14:48.562Z,937.27
2022-09-26T10:15:48.616Z,937.29
2022-09-26T10:16:48.575Z,937.36
2022-09-26T10:18:06.594Z,937.37
2022-09-26T10:18:48.638Z,937.36
2022-09-26T10:19:48.614Z,937.41
2022-09-26T10:20:48.706Z,937.42
2022-09-26T10:21:48.643Z,937.43
2022-09-26T10:22:48.652Z,937.47
2022-09-26T10:23:48.662Z,937.52
2022-09-26T10:24:48.675Z,937.55
2022-09-26T10:25:48.689Z,937.55
2022-09-26T10:26:48.703Z,937.59
2022-09-26T10:27:48.715Z,937.66
2022-09-26T10:28:48.759Z,937.66
2022-09-26T10:29:48.741Z,937.69
2022-09-26T10:30:48.855Z,937.69
2022-09-26T10:31:48.822Z,937.70
2022-09-26T10:32:51.725Z,937.72
2022-09-26T10:33:48.790Z,937.68
2022-09-26T10:34:48.803Z,937.71
2022-09-26T10:35:48.816Z,937.68
2022-09-26T10:36:48.850Z,937.69
2022-09-26T10:37:48.840Z,937.60
2022-09-26T10:38:48.923Z,937.62
2022-09-26T10:39:48.867Z,937.66
2022-09-26T10:40:48.980Z,937.63
2022-09-26T10:41:48.893Z,937.71
2022-09-26T10:42:48.903Z,937.78
2022-09-26T10:43:48.915Z,937.79
2022-09-26T10:44:49.134Z,937.84
2022-09-26T10:45:48.942Z,937.87
2022-09-26T10:46:49.085Z,937.89
2022-09-26T10:47:48.968Z,937.91
2022-09-26T10:48:49.141Z,937.97
2022-09-26T10:49:48.992Z,937.97
2022-09-26T10:50:49.006Z,938.00
2022-09-26T10:51:49.018Z,938.02
2022-09-26T10:52:49.090Z,938.05
2022-09-26T10:53:49.043Z,938.06
2022-09-26T10:54:49.055Z,938.06
2022-09-26T10:55:49.067Z,938.07
2022-09-26T10:56:49.081Z,938.13
2022-09-26T10:57:49.094Z,938.09
2022-09-26T10:58:49.106Z,938.14
2022-09-26T10:59:49.132Z,938.15
2022-09-26T11:00:49.131Z,938.16
2022-09-26T11:01:49.230Z,938.17
2022-09-26T11:02:49.157Z,938.19
2022-09-26T11:03:49.210Z,938.19
2022-09-26T11:04:49.200Z,938.21
2022-09-26T11:05:49.194Z,938.25
2022-09-26T11:06:49.208Z,938.28
2022-09-26T11:07:49.223Z,938.30
2022-09-26T11:08:49.273Z,938.35
2022-09-26T11:09:49.247Z,938.34
2022-09-26T11:10:49.256Z,938.38
2022-09-26T11:11:49.270Z,938.40
2022-09-26T11:12:49.283Z,938.48
2022-09-26T11:13:49.294Z,938.54
2022-09-26T11:14:49.308Z,938.61
2022-09-26T11:15:49.339Z,938.66
2022-09-26T11:16:49.332Z,938.67
2022-09-26T11:17:49.346Z,938.70
2022-09-26T11:18:49.358Z,938.79
2022-09-26T11:19:53.928Z,938.81
2022-09-26T11:20:49.384Z,938.88
2022-09-26T11:21:49.397Z,938.97
2022-09-26T11:22:49.408Z,939.06
2022-09-26T11:23:49.422Z,939.11
2022-09-26T11:24:49.453Z,939.12
2022-09-26T11:25:52.253Z,939.12
2022-09-26T11:26:49.458Z,939.11
2022-09-26T11:27:49.472Z,939.11
2022-09-26T11:28:49.485Z,939.11
2022-09-26T11:29:49.496Z,939.14
2022-09-26T11:30:49.581Z,939.13
2022-09-26T11:31:49.522Z,939.12
2022-09-26T11:32:49.536Z,939.07
2022-09-26T11:33:49.554Z,939.00
2022-09-26T11:34:49.560Z,938.92
2022-09-26T11:35:49.578Z,938.85
2022-09-26T11:36:49.586Z,938.82
2022-09-26T11:37:49.598Z,938.80
2022-09-26T11:38:49.620Z,938.82
2022-09-26T11:39:49.624Z,938.86
2022-09-26T11:40:49.709Z,938.84
2022-09-26T11:41:49.650Z,938.80
2022-09-26T11:42:49.659Z,938.80
2022-09-26T11:43:49.673Z,938.72
2022-09-26T11:44:49.687Z,938.73
2022-09-26T11:45:49.698Z,938.68
2022-09-26T11:46:49.814Z,938.66
2022-09-26T11:47:49.737Z,938.66
2022-09-26T11:48:49.736Z,938.69
2022-09-26T11:49:49.749Z,938.68
2022-09-26T11:50:49.761Z,938.72
2022-09-26T11:51:49.775Z,938.72
2022-09-26T11:52:49.786Z,938.76
2022-09-26T11:53:49.800Z,938.73
2022-09-26T11:54:49.814Z,938.74
2022-09-26T11:55:49.825Z,938.75
2022-09-26T11:56:49.891Z,938.71
2022-09-26T11:57:49.853Z,938.69
2022-09-26T11:58:49.863Z,938.66
2022-09-26T11:59:49.877Z,938.67
2022-09-26T12:00:49.890Z,938.63
2022-09-26T12:01:49.903Z,938.58
2022-09-26T12:02:50.008Z,938.52
2022-09-26T12:03:50.145Z,938.49
2022-09-26T12:04:49.962Z,938.42
2022-09-26T12:05:49.954Z,938.50
2022-09-26T12:06:49.965Z,938.47
2022-09-26T12:07:49.978Z,938.61
2022-09-26T12:08:49.988Z,938.69
2022-09-26T12:09:50.003Z,938.71
2022-09-26T12:10:50.022Z,938.74
2022-09-26T12:11:50.030Z,938.68
2022-09-26T12:12:50.062Z,938.59
2022-09-26T12:13:50.054Z,938.34
2022-09-26T12:14:50.066Z,938.21
2022-09-26T12:15:50.115Z,938.18
2022-09-26T12:16:50.092Z,938.27
2022-09-26T12:17:50.106Z,938.40
2022-09-26T12:18:50.119Z,938.58
2022-09-26T12:19:50.131Z,938.68
2022-09-26T12:20:50.141Z,938.72
2022-09-26T12:21:50.154Z,938.74
2022-09-26T12:22:50.165Z,938.71
2022-09-26T12:23:50.178Z,938.60
2022-09-26T12:24:50.195Z,938.56
2022-09-26T12:25:50.205Z,938.42
2022-09-26T12:26:50.216Z,938.35
2022-09-26T12:27:50.230Z,938.26
2022-09-26T12:28:50.261Z,938.24
2022-09-26T12:29:50.255Z,938.20